Time;durP1;ratioP1;P1;durP2;ratioP2;P2;SDS_P1;SDS_P2;PMS_P1;PMS_P2;Temp;Humidity;BMP_temperature;BMP_pressure;BME280_temperature;BME280_humidity;BME280_pressure;Samples;Min_cycle;Max_cycle;Signal;HPM_P1;HPM_P2
2023/01/13 00:00:30;;;;;;;31.67;5.65;;;9.30;99.90;;;;;;5054469;28;20040;-76
2023/01/13 00:02:55;;;;;;;37.38;5.18;;;9.20;99.90;;;;;;5054519;28;20037;-76
2023/01/13 00:05:21;;;;;;;32.88;4.88;;;9.20;99.90;;;;;;5053813;28;20028;-76
2023/01/13 00:07:48;;;;;;;31.33;5.10;;;9.10;99.90;;;;;;5054245;28;20385;-76
2023/01/13 00:10:14;;;;;;;43.42;6.32;;;9.20;99.90;;;;;;5053707;28;20102;-75
2023/01/13 00:12:41;;;;;;;30.60;4.38;;;9.20;99.90;;;;;;5054222;28;20513;-76
2023/01/13 00:15:08;;;;;;;36.45;6.25;;;9.20;99.90;;;;;;5054245;28;20060;-74
2023/01/13 00:17:33;;;;;;;46.38;6.35;;;9.20;99.90;;;;;;5053936;28;20024;-76
2023/01/13 00:19:59;;;;;;;42.50;6.32;;;9.20;99.90;;;;;;5054506;28;20032;-75
2023/01/13 00:22:24;;;;;;;40.08;5.43;;;9.20;99.90;;;;;;5054608;28;20029;-75
2023/01/13 00:24:50;;;;;;;35.15;4.43;;;9.20;99.90;;;;;;5053537;28;20044;-74
2023/01/13 00:27:15;;;;;;;35.75;4.60;;;9.20;99.90;;;;;;5054070;28;20033;-75
2023/01/13 00:29:41;;;;;;;46.50;6.50;;;9.20;99.90;;;;;;5054424;28;20024;-74
2023/01/13 00:32:06;;;;;;;36.58;5.93;;;9.20;99.90;;;;;;5053197;28;20057;-75
2023/01/13 00:34:35;;;;;;;30.20;5.72;;;9.20;99.90;;;;;;5053963;28;20040;-75
2023/01/13 00:37:01;;;;;;;36.40;5.75;;;9.30;99.90;;;;;;5054100;28;20491;-75
2023/01/13 00:39:26;;;;;;;39.45;5.80;;;9.30;99.90;;;;;;5053531;28;20108;-75
2023/01/13 00:44:36;;;;;;;42.03;5.22;;;9.40;99.90;;;;;;5043603;28;20064;-75
2023/01/13 00:47:01;;;;;;;29.13;4.07;;;9.40;99.90;;;;;;5050482;28;20061;-76
2023/01/13 00:49:27;;;;;;;30.20;5.15;;;9.40;99.90;;;;;;5053826;28;20021;-76
2023/01/13 00:51:53;;;;;;;23.00;3.60;;;9.30;99.90;;;;;;5053184;28;20025;-74
2023/01/13 00:54:18;;;;;;;41.03;5.10;;;9.30;99.90;;;;;;5052973;28;20021;-76
2023/01/13 00:56:44;;;;;;;31.20;4.40;;;9.30;99.90;;;;;;5053313;28;20063;-75
2023/01/13 00:59:11;;;;;;;32.88;5.97;;;9.20;99.90;;;;;;5053059;28;20021;-75
2023/01/13 01:01:37;;;;;;;31.02;5.00;;;9.20;99.90;;;;;;5052770;28;20031;-75
2023/01/13 01:04:02;;;;;;;30.60;5.57;;;9.20;99.90;;;;;;5052963;28;20037;-75
2023/01/13 01:06:29;;;;;;;36.70;5.25;;;9.10;99.90;;;;;;5052700;28;20060;-74
2023/01/13 01:08:55;;;;;;;30.20;5.00;;;9.10;99.90;;;;;;5052793;28;20075;-76
2023/01/13 01:11:23;;;;;;;30.05;4.30;;;9.00;99.90;;;;;;5053296;28;20063;-75
2023/01/13 01:13:53;;;;;;;34.40;4.47;;;9.00;99.90;;;;;;5052593;28;20021;-75
2023/01/13 01:16:21;;;;;;;43.58;4.95;;;9.00;99.90;;;;;;5052994;28;20021;-75
2023/01/13 01:18:49;;;;;;;36.97;4.88;;;9.00;99.90;;;;;;5053515;28;20021;-75
2023/01/13 01:21:15;;;;;;;31.20;5.00;;;9.00;99.90;;;;;;5052486;28;20496;-75
2023/01/13 01:23:41;;;;;;;34.60;5.35;;;9.00;99.90;;;;;;5053412;28;20028;-76
2023/01/13 01:26:15;;;;;;;42.65;5.05;;;9.00;99.90;;;;;;5052601;28;20044;-76
2023/01/13 01:28:40;;;;;;;34.63;5.88;;;8.90;99.90;;;;;;5052644;28;20412;-76
2023/01/13 01:31:08;;;;;;;35.65;4.55;;;8.90;99.90;;;;;;5052354;28;20045;-76
2023/01/13 01:33:34;;;;;;;26.13;4.72;;;8.90;99.90;;;;;;5053193;28;20092;-75
2023/01/13 01:36:01;;;;;;;31.33;5.32;;;9.00;99.90;;;;;;5052724;28;20027;-75
2023/01/13 01:38:26;;;;;;;34.95;6.72;;;9.00;99.90;;;;;;5053922;28;20029;-76
2023/01/13 01:40:52;;;;;;;31.77;4.47;;;8.90;99.90;;;;;;5053109;28;20036;-76
2023/01/13 01:46:06;;;;;;;30.05;5.22;;;8.90;99.90;;;;;;5045650;28;20044;-76
2023/01/13 01:48:36;;;;;;;26.83;5.13;;;8.90;99.90;;;;;;5052705;28;20069;-76
2023/01/13 01:51:04;;;;;;;29.85;4.95;;;8.90;99.90;;;;;;5050478;28;20082;-76
2023/01/13 01:53:32;;;;;;;38.38;5.28;;;8.90;99.90;;;;;;5039740;28;20079;-75
2023/01/13 01:55:59;;;;;;;33.95;6.68;;;8.80;99.90;;;;;;5038775;28;20025;-74
2023/01/13 01:58:29;;;;;;;50.15;8.52;;;8.80;99.90;;;;;;5053135;28;20453;-75
2023/01/13 02:00:55;;;;;;;42.10;5.72;;;8.90;99.90;;;;;;5052084;28;20099;-74
2023/01/13 02:03:21;;;;;;;39.13;6.50;;;8.80;99.90;;;;;;5040101;28;20124;-76
2023/01/13 02:05:46;;;;;;;36.58;4.78;;;8.80;99.90;;;;;;5049982;28;20535;-75
2023/01/13 02:08:13;;;;;;;29.65;4.50;;;8.80;99.90;;;;;;5052239;28;20423;-76
2023/01/13 02:10:40;;;;;;;28.48;4.88;;;8.80;99.90;;;;;;5051310;28;20029;-75
2023/01/13 02:13:11;;;;;;;37.45;5.40;;;8.80;99.90;;;;;;5052215;28;20028;-75
2023/01/13 02:15:55;;;;;;;41.53;6.03;;;8.80;99.90;;;;;;5052479;28;20052;-76
2023/01/13 02:18:39;;;;;;;42.83;5.15;;;8.80;99.90;;;;;;5052403;28;20086;-75
2023/01/13 02:21:15;;;;;;;37.35;5.15;;;8.80;99.90;;;;;;5038619;28;20032;-76
2023/01/13 02:27:09;;;;;;;35.40;4.88;;;8.80;99.90;;;;;;5051663;28;20050;-74
2023/01/13 02:32:39;;;;;;;48.80;5.97;;;8.90;99.90;;;;;;5051022;28;20110;-76
2023/01/13 02:35:17;;;;;;;29.02;5.53;;;8.90;99.90;;;;;;5051579;28;20051;-76
2023/01/13 02:37:43;;;;;;;35.60;4.35;;;8.90;99.90;;;;;;5051653;28;20029;-77
2023/01/13 02:40:22;;;;;;;34.60;5.00;;;8.90;99.90;;;;;;5049427;28;20021;-77
2023/01/13 02:46:25;;;;;;;31.33;4.28;;;8.90;99.90;;;;;;5049558;28;20111;-76
2023/01/13 02:48:53;;;;;;;40.95;5.03;;;8.80;99.90;;;;;;5051541;28;20029;-75
2023/01/13 02:51:23;;;;;;;35.50;4.68;;;8.80;99.90;;;;;;5051708;28;20033;-75
2023/01/13 02:53:54;;;;;;;41.85;6.88;;;8.80;99.90;;;;;;5045337;28;20029;-75
2023/01/13 02:56:22;;;;;;;42.35;5.45;;;8.80;99.90;;;;;;5044134;28;20021;-75
2023/01/13 02:58:49;;;;;;;24.25;4.25;;;8.80;99.90;;;;;;5051415;28;20022;-75
2023/01/13 03:01:15;;;;;;;34.35;6.05;;;8.80;99.90;;;;;;5050764;28;20492;-76
2023/01/13 03:03:40;;;;;;;33.00;4.53;;;8.80;99.90;;;;;;5051685;28;20025;-76
2023/01/13 03:06:34;;;;;;;22.02;3.88;;;8.80;99.90;;;;;;5050553;28;20102;-75
2023/01/13 03:09:10;;;;;;;38.97;4.82;;;8.80;99.90;;;;;;5054316;28;20021;-75
2023/01/13 03:12:02;;;;;;;32.95;5.43;;;8.80;99.90;;;;;;5055786;28;20029;-75
2023/01/13 03:15:09;;;;;;;33.00;3.58;;;8.80;99.90;;;;;;5054685;28;20025;-75
2023/01/13 03:17:48;;;;;;;24.83;4.03;;;8.90;99.90;;;;;;5032802;28;20210;-76
2023/01/13 03:20:21;;;;;;;29.90;3.78;;;8.90;99.90;;;;;;5047369;28;20227;-75
2023/01/13 03:23:05;;;;;;;28.73;4.18;;;8.90;99.90;;;;;;5055484;28;20485;-75
2023/01/13 03:25:36;;;;;;;30.58;3.78;;;8.80;99.90;;;;;;5054921;28;20164;-75
2023/01/13 03:28:04;;;;;;;27.17;3.53;;;8.80;99.90;;;;;;5054462;28;20029;-76
2023/01/13 03:30:41;;;;;;;29.75;5.20;;;8.80;99.90;;;;;;5055306;28;20082;-77
2023/01/13 03:33:14;;;;;;;32.10;3.95;;;8.80;99.90;;;;;;5055050;28;20396;-76
2023/01/13 03:35:47;;;;;;;24.73;3.70;;;8.90;99.90;;;;;;5054321;28;20021;-75
2023/01/13 03:38:20;;;;;;;25.75;3.40;;;8.80;99.90;;;;;;5055041;28;20106;-75
2023/01/13 03:41:04;;;;;;;24.90;3.80;;;8.80;99.90;;;;;;5054948;28;20100;-75
2023/01/13 03:46:36;;;;;;;24.92;2.97;;;8.70;99.90;;;;;;5055410;28;20075;-75
2023/01/13 03:49:04;;;;;;;20.75;3.20;;;8.70;99.90;;;;;;5054583;28;20131;-74
2023/01/13 03:51:32;;;;;;;17.50;3.20;;;8.60;99.90;;;;;;5055375;28;20025;-76
2023/01/13 03:54:03;;;;;;;17.65;2.47;;;8.60;99.90;;;;;;5048321;28;20017;-76
2023/01/13 03:56:33;;;;;;;13.48;2.28;;;8.70;99.90;;;;;;5048520;28;20072;-75
2023/01/13 03:59:03;;;;;;;17.73;2.42;;;8.60;99.90;;;;;;5054495;28;20466;-76
2023/01/13 04:01:51;;;;;;;;;;;8.60;99.90;;;;;;5055834;28;20032;-76
2023/01/13 04:04:40;;;;;;;15.10;2.00;;;8.60;99.90;;;;;;5054416;28;19904;-76
2023/01/13 04:07:31;;;;;;;10.57;1.58;;;8.60;99.90;;;;;;5054720;28;20043;-75
2023/01/13 04:10:02;;;;;;;13.18;1.33;;;8.60;99.90;;;;;;5054461;28;20031;-76
2023/01/13 04:15:15;;;;;;;10.68;1.27;;;8.50;99.90;;;;;;5054334;28;19911;-75
2023/01/13 04:17:41;;;;;;;10.23;1.20;;;8.50;99.90;;;;;;5053559;28;20049;-76
2023/01/13 04:20:07;;;;;;;13.48;2.17;;;8.50;99.90;;;;;;5053470;28;20064;-75
2023/01/13 04:22:33;;;;;;;14.52;2.42;;;8.50;99.90;;;;;;5054040;28;20374;-77
2023/01/13 04:24:58;;;;;;;7.53;1.30;;;8.50;99.90;;;;;;5053259;28;20116;-76
2023/01/13 04:27:24;;;;;;;13.63;1.67;;;8.50;99.90;;;;;;5053839;28;20481;-76
2023/01/13 04:29:49;;;;;;;11.63;1.42;;;8.50;99.90;;;;;;5053821;28;20029;-75
2023/01/13 04:32:15;;;;;;;11.45;2.78;;;8.50;99.90;;;;;;5053329;28;20057;-76
2023/01/13 04:34:40;;;;;;;16.20;2.78;;;8.50;99.90;;;;;;5054617;28;20032;-75
2023/01/13 04:37:06;;;;;;;11.27;1.58;;;8.50;99.90;;;;;;5054219;28;20468;-75
2023/01/13 04:39:32;;;;;;;7.93;1.77;;;8.50;99.90;;;;;;5053445;28;20021;-75
2023/01/13 04:41:57;;;;;;;11.40;1.73;;;8.50;99.90;;;;;;5054349;28;20025;-75
2023/01/13 04:44:23;;;;;;;13.43;2.10;;;8.50;99.90;;;;;;5053799;28;20025;-75
2023/01/13 04:46:49;;;;;;;8.85;1.35;;;8.50;99.90;;;;;;5054205;28;20128;-75
2023/01/13 04:49:14;;;;;;;16.98;2.55;;;8.50;99.90;;;;;;5053631;28;20021;-76
2023/01/13 04:51:40;;;;;;;12.68;1.98;;;8.50;99.90;;;;;;5052925;28;20103;-75
2023/01/13 04:54:06;;;;;;;11.05;2.80;;;8.50;99.90;;;;;;5044996;28;20026;-76
2023/01/13 04:56:31;;;;;;;21.73;2.60;;;8.60;99.90;;;;;;5047771;28;20047;-76
2023/01/13 04:58:57;;;;;;;18.08;2.53;;;8.60;99.90;;;;;;5052368;28;20031;-76
2023/01/13 05:01:22;;;;;;;15.48;2.25;;;8.70;99.90;;;;;;5053363;28;20021;-76
2023/01/13 05:03:48;;;;;;;15.00;2.33;;;8.70;99.90;;;;;;5053332;28;20013;-75
2023/01/13 05:06:14;;;;;;;17.23;3.05;;;8.70;99.90;;;;;;5052516;28;20037;-75
2023/01/13 05:08:39;;;;;;;10.25;2.47;;;8.80;99.90;;;;;;5053137;28;20025;-75
2023/01/13 05:16:58;;;;;;;11.93;2.40;;;8.80;99.90;;;;;;5045008;28;20025;-75
2023/01/13 05:19:23;;;;;;;18.25;3.10;;;8.70;99.90;;;;;;5032583;28;20040;-75
2023/01/13 05:27:17;;;;;;;18.45;2.47;;;8.50;99.90;;;;;;5031155;28;20087;-76
2023/01/13 05:29:42;;;;;;;18.08;2.50;;;8.50;99.90;;;;;;5032848;28;20425;-76
2023/01/13 05:32:08;;;;;;;12.30;2.15;;;8.40;99.90;;;;;;5030135;28;20048;-77
2023/01/13 05:34:34;;;;;;;17.00;3.25;;;8.40;99.90;;;;;;5030469;28;20028;-76
2023/01/13 05:36:59;;;;;;;15.50;2.65;;;8.40;99.90;;;;;;5033093;28;20056;-75
2023/01/13 05:39:26;;;;;;;18.23;2.20;;;8.30;99.90;;;;;;5031307;28;20030;-75
2023/01/13 05:44:36;;;;;;;13.32;2.33;;;8.30;99.90;;;;;;5033358;28;20088;-76
2023/01/13 05:47:02;;;;;;;31.15;2.40;;;8.30;99.90;;;;;;5030901;28;20033;-76
2023/01/13 05:49:27;;;;;;;18.92;3.10;;;8.40;99.90;;;;;;5037512;28;20105;-75
2023/01/13 05:51:53;;;;;;;27.85;3.85;;;8.30;99.90;;;;;;5037752;28;20390;-75
2023/01/13 05:54:21;;;;;;;16.52;3.03;;;8.30;99.90;;;;;;5033283;28;20018;-75
2023/01/13 05:56:47;;;;;;;15.95;2.05;;;8.30;99.90;;;;;;5032873;28;20025;-74
2023/01/13 05:59:12;;;;;;;24.15;2.67;;;8.30;99.90;;;;;;5033912;28;20029;-75
2023/01/13 06:01:38;;;;;;;21.23;2.90;;;8.30;99.90;;;;;;5031002;28;20034;-75
2023/01/13 06:04:04;;;;;;;12.27;3.25;;;8.30;99.90;;;;;;5033211;28;20029;-75
2023/01/13 06:06:29;;;;;;;34.58;3.92;;;8.30;99.90;;;;;;5031414;28;20037;-76
2023/01/13 06:08:55;;;;;;;19.65;3.33;;;8.30;99.90;;;;;;5030002;28;20014;-77
2023/01/13 06:11:20;;;;;;;23.23;2.50;;;8.40;99.90;;;;;;5033301;28;20017;-75
2023/01/13 06:13:46;;;;;;;22.00;3.72;;;8.40;99.90;;;;;;5031123;28;20062;-75
2023/01/13 06:16:11;;;;;;;16.98;2.67;;;8.40;99.90;;;;;;5033608;28;20591;-76
2023/01/13 06:18:37;;;;;;;18.08;3.72;;;8.40;99.90;;;;;;5050087;28;20072;-74
2023/01/13 06:21:03;;;;;;;24.73;3.05;;;8.50;99.90;;;;;;5048973;28;20028;-74
2023/01/13 06:23:33;;;;;;;19.55;4.03;;;8.50;99.90;;;;;;5050342;28;20029;-74
2023/01/13 06:26:13;;;;;;;20.25;2.83;;;8.50;99.90;;;;;;5050784;28;20040;-75
2023/01/13 06:28:38;;;;;;;25.23;3.75;;;8.50;99.90;;;;;;5049287;28;20028;-75
2023/01/13 06:31:07;;;;;;;22.75;3.30;;;8.60;99.90;;;;;;5046051;28;20645;-75
2023/01/13 06:33:39;;;;;;;28.88;4.30;;;8.60;99.90;;;;;;5047131;28;20488;-76
2023/01/13 06:36:23;;;;;;;21.15;3.40;;;8.50;99.90;;;;;;5048606;28;20109;-75
2023/01/13 06:38:52;;;;;;;30.50;5.63;;;8.50;99.90;;;;;;5047307;28;20025;-77
2023/01/13 06:43:13;;;;;;;16.52;3.17;;;8.60;99.90;;;;;;5049980;28;20078;-75
2023/01/13 06:44:04;;;;;;;22.77;3.28;;;8.50;99.90;;;;;;5053580;28;20102;-75
2023/01/13 06:46:30;;;;;;;27.45;3.30;;;8.60;99.90;;;;;;5045506;28;20037;-75
2023/01/13 06:48:55;;;;;;;22.52;4.65;;;8.60;99.90;;;;;;5052279;28;20477;-75
2023/01/13 06:51:21;;;;;;;17.88;3.17;;;8.60;99.90;;;;;;5051171;28;20034;-76
2023/01/13 06:53:46;;;;;;;22.50;2.78;;;8.60;99.90;;;;;;5051163;28;20032;-74
2023/01/13 06:56:12;;;;;;;15.95;3.20;;;8.60;99.90;;;;;;5048853;28;20462;-75
2023/01/13 06:58:37;;;;;;;29.58;3.58;;;8.70;99.90;;;;;;5045256;28;20462;-76
2023/01/13 07:01:03;;;;;;;26.70;3.78;;;8.70;99.90;;;;;;5052870;28;20048;-75
2023/01/13 07:03:29;;;;;;;23.05;3.33;;;8.80;99.90;;;;;;5051622;28;20116;-76
2023/01/13 07:05:54;;;;;;;16.10;2.45;;;8.80;99.90;;;;;;5053532;28;20047;-74
2023/01/13 07:08:21;;;;;;;18.23;2.80;;;8.80;99.90;;;;;;5055314;28;20104;-74
2023/01/13 07:10:47;;;;;;;17.63;3.10;;;8.80;99.90;;;;;;5052214;28;20025;-75
2023/01/13 07:16:00;;;;;;;21.13;3.22;;;8.80;99.90;;;;;;5048691;28;20109;-75
2023/01/13 07:18:27;;;;;;;18.10;2.95;;;8.80;99.90;;;;;;5053770;28;20029;-75
2023/01/13 07:21:17;;;;;;;28.20;6.25;;;8.80;99.90;;;;;;5049192;28;20021;-76
2023/01/13 07:23:43;;;;;;;14.87;2.80;;;8.80;99.90;;;;;;5055160;28;20092;-76
2023/01/13 07:26:09;;;;;;;23.67;3.08;;;8.80;99.90;;;;;;5054355;28;20580;-76
2023/01/13 07:28:36;;;;;;;20.50;3.10;;;8.80;99.90;;;;;;5043674;28;20116;-76
2023/01/13 07:31:02;;;;;;;29.65;3.65;;;8.90;99.90;;;;;;5040562;28;20041;-77
2023/01/13 07:33:31;;;;;;;24.70;4.50;;;8.80;99.90;;;;;;5035067;28;20620;-76
2023/01/13 07:36:00;;;;;;;28.70;3.75;;;8.90;99.90;;;;;;5036127;28;20037;-77
2023/01/13 07:38:26;;;;;;;26.88;2.90;;;8.90;99.90;;;;;;5043407;28;20044;-76
2023/01/13 07:40:51;;;;;;;24.48;4.05;;;8.90;99.90;;;;;;5050295;28;20025;-76
2023/01/13 07:43:32;;;;;;;27.25;4.25;;;8.90;99.90;;;;;;5050268;28;20465;-76
2023/01/13 07:45:58;;;;;;;;;;;8.90;99.90;;;;;;5050824;28;20033;-75
2023/01/13 07:48:25;;;;;;;21.48;3.50;;;9.00;99.90;;;;;;5034425;28;19905;-75
2023/01/13 07:50:51;;;;;;;28.00;3.78;;;9.00;99.90;;;;;;5034466;28;20021;-76
2023/01/13 07:53:18;;;;;;;28.52;3.90;;;9.00;99.90;;;;;;5034988;28;20032;-78
2023/01/13 07:55:43;;;;;;;23.42;3.95;;;9.00;99.90;;;;;;5040663;28;20025;-77
2023/01/13 07:58:09;;;;;;;22.33;3.30;;;9.00;99.90;;;;;;5054481;28;20457;-77
2023/01/13 08:00:36;;;;;;;15.52;3.15;;;9.00;99.90;;;;;;5054342;28;20033;-75
2023/01/13 08:03:01;;;;;;;29.23;4.90;;;9.10;99.90;;;;;;5053694;28;20032;-76
2023/01/13 08:05:27;;;;;;;17.00;2.65;;;9.10;99.90;;;;;;5054418;28;20025;-76
2023/01/13 08:07:53;;;;;;;17.20;2.75;;;9.10;99.90;;;;;;5054392;28;20063;-76
2023/01/13 08:10:18;;;;;;;20.48;3.08;;;9.10;99.90;;;;;;5053629;28;20461;-75
2023/01/13 08:15:33;;;;;;;18.48;2.72;;;9.10;99.90;;;;;;5053612;28;20066;-76
2023/01/13 08:17:59;;;;;;;22.13;3.00;;;9.20;99.90;;;;;;5054199;28;20043;-75
2023/01/13 08:20:25;;;;;;;21.80;3.03;;;9.20;99.90;;;;;;5054167;28;20389;-76
2023/01/13 08:22:56;;;;;;;25.42;3.25;;;9.20;99.90;;;;;;5053598;28;20028;-76
2023/01/13 08:25:22;;;;;;;28.85;3.65;;;9.20;99.90;;;;;;5054358;28;20484;-76
2023/01/13 08:27:49;;;;;;;20.00;4.18;;;9.20;99.90;;;;;;5049399;28;20071;-76
2023/01/13 08:30:15;;;;;;;21.63;3.72;;;9.20;99.90;;;;;;5034248;28;20025;-76
2023/01/13 08:32:47;;;;;;;36.13;3.83;;;9.30;99.90;;;;;;5033986;28;20473;-76
2023/01/13 08:35:12;;;;;;;22.50;3.38;;;9.20;99.90;;;;;;5033864;28;20034;-77
2023/01/13 08:37:39;;;;;;;17.27;3.45;;;9.30;99.90;;;;;;5040281;28;20072;-76
2023/01/13 08:40:05;;;;;;;22.52;3.25;;;9.30;99.90;;;;;;5033056;28;20444;-75
2023/01/13 08:42:31;;;;;;;22.42;3.80;;;9.30;99.90;;;;;;5033793;28;20130;-76
2023/01/13 08:44:57;;;;;;;24.60;4.38;;;9.30;99.90;;;;;;5031810;28;20060;-75
2023/01/13 08:47:23;;;;;;;22.52;3.55;;;9.20;99.90;;;;;;5032069;28;20516;-75
2023/01/13 08:49:49;;;;;;;30.33;5.13;;;9.20;99.90;;;;;;5031764;28;20026;-75
2023/01/13 08:52:15;;;;;;;33.63;4.38;;;9.20;99.90;;;;;;5031765;28;20096;-75
2023/01/13 08:54:41;;;;;;;22.27;3.63;;;9.10;99.90;;;;;;5032877;28;20049;-76
2023/01/13 08:57:06;;;;;;;24.40;4.03;;;9.00;99.90;;;;;;5049518;28;20122;-74
2023/01/13 08:59:32;;;;;;;20.48;5.20;;;9.00;99.90;;;;;;5046384;28;20017;-73
2023/01/13 09:02:02;;;;;;;25.83;5.90;;;9.00;99.90;;;;;;5032498;28;20030;-74
2023/01/13 09:04:27;;;;;;;14.95;2.63;;;8.90;99.90;;;;;;5039284;28;20456;-74
2023/01/13 09:06:54;;;;;;;28.67;3.88;;;8.80;99.90;;;;;;5041575;28;20064;-74
2023/01/13 09:09:20;;;;;;;29.77;4.80;;;8.80;99.90;;;;;;5033399;28;20029;-74
2023/01/13 09:14:38;;;;;;;19.17;3.60;;;8.80;99.90;;;;;;5033546;28;20036;-74
2023/01/13 09:17:04;;;;;;;20.38;3.85;;;8.70;99.90;;;;;;5032481;28;20049;-75
2023/01/13 09:19:29;;;;;;;19.27;2.90;;;8.70;99.90;;;;;;5041736;28;20026;-75
2023/01/13 09:21:56;;;;;;;23.17;3.38;;;8.70;99.90;;;;;;5032946;28;20454;-74
2023/01/13 09:24:23;;;;;;;17.42;3.13;;;8.60;99.90;;;;;;5033819;28;20104;-73
2023/01/13 09:26:49;;;;;;;28.23;3.58;;;8.70;99.90;;;;;;5031455;28;20033;-74
2023/01/13 09:29:15;;;;;;;14.88;3.28;;;8.60;99.90;;;;;;5035107;28;20083;-73
2023/01/13 09:31:41;;;;;;;20.65;3.53;;;8.60;99.90;;;;;;5037171;28;20285;-75
2023/01/13 09:36:58;;;;;;;20.92;3.33;;;8.70;99.90;;;;;;5033194;28;20103;-73
2023/01/13 09:39:24;;;;;;;28.02;4.82;;;8.70;99.90;;;;;;5052688;28;20021;-73
2023/01/13 09:44:48;;;;;;;19.90;2.33;;;8.70;99.90;;;;;;5052867;28;20068;-76
2023/01/13 09:47:30;;;;;;;23.52;3.70;;;8.80;99.90;;;;;;5031865;28;20079;-76
2023/01/13 09:50:27;;;;;;;31.13;4.47;;;8.80;99.90;;;;;;5032513;28;20075;-75
2023/01/13 09:52:53;;;;;;;24.35;3.45;;;8.70;99.90;;;;;;5033115;28;20025;-75
2023/01/13 09:55:35;;;;;;;22.20;3.35;;;8.70;99.90;;;;;;5036590;28;20028;-74
2023/01/13 09:58:17;;;;;;;19.67;2.42;;;8.80;99.90;;;;;;5052497;28;20029;-73
2023/01/13 10:00:54;;;;;;;23.90;3.92;;;8.80;99.90;;;;;;5041180;28;20511;-76
2023/01/13 10:03:26;;;;;;;13.07;2.58;;;8.80;99.90;;;;;;5032157;28;20105;-75
2023/01/13 10:06:10;;;;;;;19.60;3.75;;;8.80;99.90;;;;;;5031944;28;20108;-75
2023/01/13 10:08:41;;;;;;;12.52;3.20;;;8.80;99.90;;;;;;5042611;28;20082;-75
2023/01/13 10:14:47;;;;;;;18.80;3.17;;;8.90;99.90;;;;;;5033315;28;20405;-76
2023/01/13 10:17:47;;;;;;;14.32;2.70;;;9.00;99.90;;;;;;5045144;28;20036;-74
2023/01/13 10:20:36;;;;;;;20.98;4.07;;;9.00;99.90;;;;;;5032520;28;20131;-75
2023/01/13 10:23:37;;;;;;;14.35;2.33;;;8.90;99.90;;;;;;5032090;28;20079;-74
2023/01/13 10:26:08;;;;;;;25.10;3.65;;;9.00;99.90;;;;;;5031898;28;20021;-76
2023/01/13 10:28:37;;;;;;;20.80;2.53;;;9.00;99.90;;;;;;5033184;28;20059;-77
2023/01/13 10:31:10;;;;;;;23.35;3.97;;;8.90;99.90;;;;;;5032302;28;20049;-76
2023/01/13 10:33:36;;;;;;;18.88;3.45;;;9.00;99.90;;;;;;5033077;28;20489;-76
2023/01/13 10:36:11;;;;;;;17.08;2.40;;;9.00;99.90;;;;;;5033004;28;20041;-76
2023/01/13 10:38:39;;;;;;;22.48;3.10;;;9.00;99.90;;;;;;5032884;28;20025;-72
2023/01/13 10:41:16;;;;;;;22.58;3.15;;;9.10;99.90;;;;;;5032506;28;20037;-76
2023/01/13 10:43:43;;;;;;;17.13;3.53;;;9.10;99.90;;;;;;5032566;28;20508;-77
2023/01/13 10:46:12;;;;;;;15.05;2.45;;;9.10;99.90;;;;;;5032735;28;20102;-76
2023/01/13 10:48:52;;;;;;;16.60;2.50;;;9.10;99.90;;;;;;5032588;28;20025;-76
2023/01/13 10:51:36;;;;;;;19.95;2.63;;;9.20;99.90;;;;;;5031880;28;20030;-76
2023/01/13 10:54:11;;;;;;;16.73;3.10;;;9.20;99.90;;;;;;5032867;28;20029;-77
2023/01/13 10:56:39;;;;;;;22.95;3.53;;;9.30;99.90;;;;;;5047574;28;20029;-76
2023/01/13 10:59:23;;;;;;;18.70;2.25;;;9.30;99.90;;;;;;5050677;28;20036;-76
2023/01/13 11:02:13;;;;;;;24.70;3.05;;;9.30;99.90;;;;;;5051067;28;20025;-76
2023/01/13 11:04:54;;;;;;;17.25;3.58;;;9.30;99.90;;;;;;5044683;28;20036;-76
2023/01/13 11:07:34;;;;;;;21.05;3.00;;;9.30;99.90;;;;;;5047758;28;20029;-76
2023/01/13 11:10:18;;;;;;;14.43;2.00;;;9.40;99.90;;;;;;5037236;28;20037;-75
2023/01/13 11:13:08;;;;;;;16.40;2.83;;;9.40;99.90;;;;;;5031617;28;20030;-74
